Terminal Aerodrome Forecast
Issued by NWS

Home | Current Version | Previous Version | Text Only | Print | Product List | Glossary On
Versions: 1 2 3 4 5 6 7 8 9 10 11 12 13 14 15 16 17
000
FTUS45 KBOU 210522
TAFAPA
TAF
KAPA 210522Z 2106/2206 18008KT P6SM FEW080 SCT220
     FM210800 21006KT P6SM FEW100 SCT220
     FM211400 VRB05KT P6SM FEW120 SCT220
     FM212200 01006KT P6SM SCT070 BKN110
     FM220100 30007KT P6SM SCT050 BKN070=

USA.gov is the U.S. government's official web portal to all federal, state and local government web resources and services.